Terminal Aerodrome Forecast
Issued by NWS

Home | Current Version | Previous Version | Text Only | Print | Product List | Glossary On
Versions: 1 2 3 4 5 6 7 8 9 10 11 12 13 14 15 16 17 18 19 20 21 22 23 24 25
000
FTUS46 KLOX 261100
TAFSBP
TAF
KSBP 261130Z 2612/2712 VRB03KT 6SM BR OVC004
     FM261600 VRB03KT P6SM SCT008 SCT200
     FM261900 29010KT P6SM SCT200
     FM270300 VRB03KT P6SM SCT250
     FM270700 VRB03KT 6SM BR BKN005
     FM271000 VRB03KT 1SM BR OVC003=

USA.gov is the U.S. government's official web portal to all federal, state and local government web resources and services.